Eviapetrol I — SY5401 — position and weather

sailwx.info

Track history (hours):
 
Tides and Currents Weather Stations Pressure Air Temp Water Temp Dewpoint Dewpoint Depression Visibility Wind Speed Wind Dir Waves Ship Positions

Eviapetrol I

Last reported at 2016-Aug-24 21:29 UTC. Time now 2016-Aug-25 20:11 UTC.
Position N 37°23' E 023°58'.

Length 75 m; draft 4.6 m.

Type: Tanker. MMSI: 240285000.

Date/timePositionNaut miles runAvg speedWind from/ knotsBaromVisibWave heightAir tempDewpointWater temp
2016-Aug-24 21:29N 37°23' E 023°58'910.1
2016-Aug-24 20:33N 37°30' E 023°50'1010.0
2016-Aug-24 19:34N 37°39' E 023°44'1010.3
2016-Aug-24 18:34N 37°48' E 023°38'10 9.8
2016-Aug-24 17:34N 37°57' E 023°34'6 5.7
2016-Aug-24 16:33N 38°02' E 023°30'0 0.0
2016-Aug-24 15:33N 38°02' E 023°30'0 0.0
2016-Aug-24 14:33N 38°02' E 023°30'0 0.0
2016-Aug-24 13:33N 38°02' E 023°30'0 0.0
2016-Aug-24 12:33N 38°02' E 023°30'0 0.0
2016-Aug-24 11:30N 38°02' E 023°30'0 0.0
2016-Aug-24 10:33N 38°02' E 023°30'0 0.0
2016-Aug-24 09:33N 38°02' E 023°30'0 0.0
2016-Aug-24 08:33N 38°02' E 023°30'0 0.0
2016-Aug-24 07:33N 38°02' E 023°30'0 0.0
2016-Aug-24 06:33N 38°02' E 023°30'0 0.0
2016-Aug-24 04:33N 38°02' E 023°30'0 0.0
2016-Aug-24 03:33N 38°02' E 023°30'0 0.0
2016-Aug-24 02:33N 38°02' E 023°30'0 0.0
2016-Aug-24 01:33N 38°02' E 023°30'0 0.0
2016-Aug-24 00:33N 38°02' E 023°30'0 0.0
2016-Aug-23 23:33N 38°02' E 023°30'0 0.0
2016-Aug-23 22:33N 38°02' E 023°30'0 0.0
2016-Aug-23 21:33N 38°02' E 023°30'6 5.6
2016-Aug-23 20:33N 37°59' E 023°25'9 9.3
2016-Aug-23 19:33N 37°55' E 023°14'1010.3
2016-Aug-23 18:33N 37°55' E 023°01'28 6.8
2016-Aug-23 14:30N 38°10' E 022°31'27 0.6
2016-Aug-21 14:27N 37°55' E 023°00'5 5.8
2016-Aug-21 13:33N 37°54' E 023°07'1010.3
2016-Aug-21 12:33N 37°56' E 023°20'8 8.3
2016-Aug-21 11:33N 38°01' E 023°29'6 5.4
2016-Aug-21 10:30N 38°02' E 023°36'0 0.0
2016-Aug-21 09:33N 38°02' E 023°36'0 0.0
2016-Aug-21 08:33N 38°02' E 023°36'0 0.0
2016-Aug-21 07:30N 38°02' E 023°36'0 0.0
2016-Aug-21 06:33N 38°02' E 023°36'3 3.0
2016-Aug-21 05:33N 38°02' E 023°32'0 0.3
2016-Aug-21 04:33N 38°02' E 023°32'0 0.0
2016-Aug-21 03:33N 38°02' E 023°32'0 0.0
2016-Aug-21 02:33N 38°02' E 023°32'0 0.1
2016-Aug-21 01:33N 38°02' E 023°32'0 0.0
2016-Aug-21 00:33N 38°02' E 023°32'1 0.8
2016-Aug-20 23:33N 38°02' E 023°31'0 0.3
2016-Aug-20 22:33N 38°02' E 023°31'0 0.0
2016-Aug-20 21:33N 38°02' E 023°31'0 0.0
2016-Aug-20 20:32N 38°02' E 023°31'0 0.0
2016-Aug-20 19:33N 38°02' E 023°31'0 0.0
2016-Aug-20 18:30N 38°02' E 023°31'0 0.0
2016-Aug-20 17:33N 38°02' E 023°31'0 0.0
2016-Aug-20 16:33N 38°02' E 023°31'0 0.0
2016-Aug-20 15:32N 38°02' E 023°31'0 0.0
2016-Aug-20 14:33N 38°02' E 023°31'0 0.0
2016-Aug-20 13:33N 38°02' E 023°31'0 0.0
2016-Aug-20 12:33N 38°02' E 023°31'0 0.0
2016-Aug-20 11:33N 38°02' E 023°31'2 2.3
2016-Aug-20 10:33N 38°00' E 023°33'9 9.1
2016-Aug-20 09:33N 37°52' E 023°38'1010.1
2016-Aug-20 08:34N 37°43' E 023°44'10 9.9
2016-Aug-20 07:33N 37°37' E 023°54'40 9.9
2016-Aug-20 03:29N 37°33' E 024°44'  
2016-Aug-17 20:33N 38°02' E 025°09'10 9.6
2016-Aug-17 19:33N 38°01' E 024°57'9 9.0
2016-Aug-17 18:33N 38°00' E 024°46'8 8.4
2016-Aug-17 17:33N 37°56' E 024°37'9 8.9
2016-Aug-17 16:33N 37°50' E 024°28'9 9.3
2016-Aug-17 15:33N 37°44' E 024°19'11 9.4
2016-Aug-17 14:24N 37°38' E 024°08'8 9.6
2016-Aug-17 13:33N 37°37' E 023°58'10 9.7
2016-Aug-17 12:33N 37°39' E 023°46'9 9.3
2016-Aug-17 11:33N 37°46' E 023°39'10 9.7
2016-Aug-17 10:33N 37°56' E 023°36'6 5.8
2016-Aug-17 09:33N 38°02' E 023°36'0 0.1
2016-Aug-17 08:32N 38°02' E 023°36'0 0.0
2016-Aug-17 07:32N 38°02' E 023°36'0 0.0
2016-Aug-17 06:32N 38°02' E 023°36'0 0.0
2016-Aug-17 05:32N 38°02' E 023°36'0 0.0
2016-Aug-17 04:26N 38°02' E 023°36'0 0.0
2016-Aug-17 03:32N 38°02' E 023°36'0 0.0
2016-Aug-17 02:32N 38°02' E 023°36'0 0.0
2016-Aug-17 01:32N 38°02' E 023°36'0 0.0
2016-Aug-17 00:29N 38°02' E 023°36'0 0.0
2016-Aug-16 23:29N 38°02' E 023°36'0 0.0
2016-Aug-16 22:32N 38°02' E 023°36'0 0.0
2016-Aug-16 21:32N 38°02' E 023°36'0 0.0
2016-Aug-16 20:29N 38°02' E 023°36'0 0.0
2016-Aug-16 19:32N 38°02' E 023°36'0 0.0
2016-Aug-16 18:32N 38°02' E 023°36'1 1.1
2016-Aug-16 17:34N 38°02' E 023°34'2 2.2
2016-Aug-16 16:31N 38°02' E 023°31'0 0.0
2016-Aug-16 15:31N 38°02' E 023°31'0 0.0
2016-Aug-16 14:31N 38°02' E 023°31'0 0.2
2016-Aug-16 13:33N 38°02' E 023°31'9 8.5
2016-Aug-16 12:33N 37°57' E 023°22'1211.2
2016-Aug-16 11:31N 37°55' E 023°08'  
Track history (hours):
 
Tides and Currents Weather Stations Pressure Air Temp Water Temp Dewpoint Dewpoint Depression Visibility Wind Speed Wind Dir Waves Ship Positions

Eviapetrol I

Last reported at 2016-Aug-24 21:29 UTC. Time now 2016-Aug-25 20:11 UTC.
Position N 37°23' E 023°58'.

Length 75 m; draft 4.6 m.

Type: Tanker. MMSI: 240285000.

Date/timePositionNaut miles runAvg speedWind from/ knotsBaromVisibWave heightAir tempDewpointWater temp
2016-Aug-24 21:29N 37°23' E 023°58'910.1
2016-Aug-24 20:33N 37°30' E 023°50'1010.0
2016-Aug-24 19:34N 37°39' E 023°44'1010.3
2016-Aug-24 18:34N 37°48' E 023°38'10 9.8
2016-Aug-24 17:34N 37°57' E 023°34'6 5.7
2016-Aug-24 16:33N 38°02' E 023°30'0 0.0
2016-Aug-24 15:33N 38°02' E 023°30'0 0.0
2016-Aug-24 14:33N 38°02' E 023°30'0 0.0
2016-Aug-24 13:33N 38°02' E 023°30'0 0.0
2016-Aug-24 12:33N 38°02' E 023°30'0 0.0
2016-Aug-24 11:30N 38°02' E 023°30'0 0.0
2016-Aug-24 10:33N 38°02' E 023°30'0 0.0
2016-Aug-24 09:33N 38°02' E 023°30'0 0.0
2016-Aug-24 08:33N 38°02' E 023°30'0 0.0
2016-Aug-24 07:33N 38°02' E 023°30'0 0.0
2016-Aug-24 06:33N 38°02' E 023°30'0 0.0
2016-Aug-24 04:33N 38°02' E 023°30'0 0.0
2016-Aug-24 03:33N 38°02' E 023°30'0 0.0
2016-Aug-24 02:33N 38°02' E 023°30'0 0.0
2016-Aug-24 01:33N 38°02' E 023°30'0 0.0
2016-Aug-24 00:33N 38°02' E 023°30'0 0.0
2016-Aug-23 23:33N 38°02' E 023°30'0 0.0
2016-Aug-23 22:33N 38°02' E 023°30'0 0.0
2016-Aug-23 21:33N 38°02' E 023°30'6 5.6
2016-Aug-23 20:33N 37°59' E 023°25'9 9.3
2016-Aug-23 19:33N 37°55' E 023°14'1010.3
2016-Aug-23 18:33N 37°55' E 023°01'28 6.8
2016-Aug-23 14:30N 38°10' E 022°31'27 0.6
2016-Aug-21 14:27N 37°55' E 023°00'5 5.8
2016-Aug-21 13:33N 37°54' E 023°07'1010.3
2016-Aug-21 12:33N 37°56' E 023°20'8 8.3
2016-Aug-21 11:33N 38°01' E 023°29'6 5.4
2016-Aug-21 10:30N 38°02' E 023°36'0 0.0
2016-Aug-21 09:33N 38°02' E 023°36'0 0.0
2016-Aug-21 08:33N 38°02' E 023°36'0 0.0
2016-Aug-21 07:30N 38°02' E 023°36'0 0.0
2016-Aug-21 06:33N 38°02' E 023°36'3 3.0
2016-Aug-21 05:33N 38°02' E 023°32'0 0.3
2016-Aug-21 04:33N 38°02' E 023°32'0 0.0
2016-Aug-21 03:33N 38°02' E 023°32'0 0.0
2016-Aug-21 02:33N 38°02' E 023°32'0 0.1
2016-Aug-21 01:33N 38°02' E 023°32'0 0.0
2016-Aug-21 00:33N 38°02' E 023°32'1 0.8
2016-Aug-20 23:33N 38°02' E 023°31'0 0.3
2016-Aug-20 22:33N 38°02' E 023°31'0 0.0
2016-Aug-20 21:33N 38°02' E 023°31'0 0.0
2016-Aug-20 20:32N 38°02' E 023°31'0 0.0
2016-Aug-20 19:33N 38°02' E 023°31'0 0.0
2016-Aug-20 18:30N 38°02' E 023°31'0 0.0
2016-Aug-20 17:33N 38°02' E 023°31'0 0.0
2016-Aug-20 16:33N 38°02' E 023°31'0 0.0
2016-Aug-20 15:32N 38°02' E 023°31'0 0.0
2016-Aug-20 14:33N 38°02' E 023°31'0 0.0
2016-Aug-20 13:33N 38°02' E 023°31'0 0.0
2016-Aug-20 12:33N 38°02' E 023°31'0 0.0
2016-Aug-20 11:33N 38°02' E 023°31'2 2.3
2016-Aug-20 10:33N 38°00' E 023°33'9 9.1
2016-Aug-20 09:33N 37°52' E 023°38'1010.1
2016-Aug-20 08:34N 37°43' E 023°44'10 9.9
2016-Aug-20 07:33N 37°37' E 023°54'40 9.9
2016-Aug-20 03:29N 37°33' E 024°44'  
2016-Aug-17 20:33N 38°02' E 025°09'10 9.6
2016-Aug-17 19:33N 38°01' E 024°57'9 9.0
2016-Aug-17 18:33N 38°00' E 024°46'8 8.4
2016-Aug-17 17:33N 37°56' E 024°37'9 8.9
2016-Aug-17 16:33N 37°50' E 024°28'9 9.3
2016-Aug-17 15:33N 37°44' E 024°19'11 9.4
2016-Aug-17 14:24N 37°38' E 024°08'8 9.6
2016-Aug-17 13:33N 37°37' E 023°58'10 9.7
2016-Aug-17 12:33N 37°39' E 023°46'9 9.3
2016-Aug-17 11:33N 37°46' E 023°39'10 9.7
2016-Aug-17 10:33N 37°56' E 023°36'6 5.8
2016-Aug-17 09:33N 38°02' E 023°36'0 0.1
2016-Aug-17 08:32N 38°02' E 023°36'0 0.0
2016-Aug-17 07:32N 38°02' E 023°36'0 0.0
2016-Aug-17 06:32N 38°02' E 023°36'0 0.0
2016-Aug-17 05:32N 38°02' E 023°36'0 0.0
2016-Aug-17 04:26N 38°02' E 023°36'0 0.0
2016-Aug-17 03:32N 38°02' E 023°36'0 0.0
2016-Aug-17 02:32N 38°02' E 023°36'0 0.0
2016-Aug-17 01:32N 38°02' E 023°36'0 0.0
2016-Aug-17 00:29N 38°02' E 023°36'0 0.0
2016-Aug-16 23:29N 38°02' E 023°36'0 0.0
2016-Aug-16 22:32N 38°02' E 023°36'0 0.0
2016-Aug-16 21:32N 38°02' E 023°36'0 0.0
2016-Aug-16 20:29N 38°02' E 023°36'0 0.0
2016-Aug-16 19:32N 38°02' E 023°36'0 0.0
2016-Aug-16 18:32N 38°02' E 023°36'1 1.1
2016-Aug-16 17:34N 38°02' E 023°34'2 2.2
2016-Aug-16 16:31N 38°02' E 023°31'0 0.0
2016-Aug-16 15:31N 38°02' E 023°31'0 0.0
2016-Aug-16 14:31N 38°02' E 023°31'0 0.2
2016-Aug-16 13:33N 38°02' E 023°31'9 8.5
2016-Aug-16 12:33N 37°57' E 023°22'1211.2
2016-Aug-16 11:31N 37°55' E 023°08'  

Dump ship's entire track history